sensor_id;sensor_type;location;lat;lon;timestamp;P1;durP1;ratioP1;P2;durP2;ratioP2
61435;SDS011;47304;47.456;19.160;2022-11-03T00:00:22;16.10;;;9.20;;
61435;SDS011;47304;47.456;19.160;2022-11-03T00:02:48;17.50;;;9.30;;
61435;SDS011;47304;47.456;19.160;2022-11-03T00:05:15;15.80;;;8.50;;
61435;SDS011;47304;47.456;19.160;2022-11-03T00:07:41;14.30;;;8.40;;
61435;SDS011;47304;47.456;19.160;2022-11-03T00:10:08;13.90;;;7.80;;
61435;SDS011;47304;47.456;19.160;2022-11-03T00:12:35;14.40;;;7.80;;
61435;SDS011;47304;47.456;19.160;2022-11-03T00:15:01;16.00;;;7.60;;
61435;SDS011;47304;47.456;19.160;2022-11-03T00:17:28;14.30;;;7.50;;
61435;SDS011;47304;47.456;19.160;2022-11-03T00:19:54;16.20;;;7.90;;
61435;SDS011;47304;47.456;19.160;2022-11-03T00:22:20;13.10;;;6.00;;
61435;SDS011;47304;47.456;19.160;2022-11-03T00:24:47;15.90;;;8.30;;
61435;SDS011;47304;47.456;19.160;2022-11-03T00:27:13;13.70;;;7.50;;
61435;SDS011;47304;47.456;19.160;2022-11-03T00:29:40;15.80;;;7.90;;
61435;SDS011;47304;47.456;19.160;2022-11-03T00:32:06;13.90;;;8.20;;
61435;SDS011;47304;47.456;19.160;2022-11-03T00:34:33;15.70;;;7.50;;
61435;SDS011;47304;47.456;19.160;2022-11-03T00:36:59;15.60;;;8.20;;
61435;SDS011;47304;47.456;19.160;2022-11-03T00:39:26;15.70;;;7.60;;
61435;SDS011;47304;47.456;19.160;2022-11-03T00:41:52;15.00;;;8.20;;
61435;SDS011;47304;47.456;19.160;2022-11-03T00:44:19;16.30;;;8.00;;
61435;SDS011;47304;47.456;19.160;2022-11-03T00:46:45;14.90;;;7.80;;
61435;SDS011;47304;47.456;19.160;2022-11-03T00:49:12;15.90;;;9.00;;
61435;SDS011;47304;47.456;19.160;2022-11-03T00:51:38;16.00;;;7.90;;
61435;SDS011;47304;47.456;19.160;2022-11-03T00:54:04;14.60;;;7.80;;
61435;SDS011;47304;47.456;19.160;2022-11-03T00:56:32;12.10;;;6.50;;
61435;SDS011;47304;47.456;19.160;2022-11-03T00:59:01;13.70;;;7.80;;
61435;SDS011;47304;47.456;19.160;2022-11-03T01:02:03;15.90;;;7.80;;
61435;SDS011;47304;47.456;19.160;2022-11-03T01:04:30;12.20;;;6.90;;
61435;SDS011;47304;47.456;19.160;2022-11-03T01:06:57;15.00;;;8.40;;
61435;SDS011;47304;47.456;19.160;2022-11-03T01:14:21;14.50;;;7.90;;
61435;SDS011;47304;47.456;19.160;2022-11-03T01:16:48;16.60;;;8.20;;
61435;SDS011;47304;47.456;19.160;2022-11-03T01:19:15;15.80;;;7.80;;
61435;SDS011;47304;47.456;19.160;2022-11-03T01:21:42;17.90;;;9.10;;
61435;SDS011;47304;47.456;19.160;2022-11-03T01:24:08;18.70;;;8.80;;
61435;SDS011;47304;47.456;19.160;2022-11-03T01:26:35;15.20;;;8.20;;
61435;SDS011;47304;47.456;19.160;2022-11-03T01:29:01;16.40;;;8.30;;
61435;SDS011;47304;47.456;19.160;2022-11-03T01:31:28;14.90;;;7.80;;
61435;SDS011;47304;47.456;19.160;2022-11-03T01:33:55;15.90;;;7.10;;
61435;SDS011;47304;47.456;19.160;2022-11-03T01:36:22;14.10;;;7.30;;
61435;SDS011;47304;47.456;19.160;2022-11-03T01:38:49;14.60;;;7.50;;
61435;SDS011;47304;47.456;19.160;2022-11-03T01:41:20;16.80;;;6.70;;
61435;SDS011;47304;47.456;19.160;2022-11-03T01:43:49;14.70;;;7.80;;
61435;SDS011;47304;47.456;19.160;2022-11-03T01:49:10;12.10;;;6.00;;
61435;SDS011;47304;47.456;19.160;2022-11-03T01:51:42;12.10;;;6.80;;
61435;SDS011;47304;47.456;19.160;2022-11-03T01:54:13;11.70;;;6.60;;
61435;SDS011;47304;47.456;19.160;2022-11-03T01:56:44;12.00;;;6.00;;
61435;SDS011;47304;47.456;19.160;2022-11-03T01:59:12;12.60;;;6.30;;
61435;SDS011;47304;47.456;19.160;2022-11-03T02:01:41;12.10;;;6.90;;
61435;SDS011;47304;47.456;19.160;2022-11-03T02:04:12;11.80;;;6.30;;
61435;SDS011;47304;47.456;19.160;2022-11-03T02:06:44;12.10;;;6.40;;
61435;SDS011;47304;47.456;19.160;2022-11-03T02:09:19;12.00;;;6.10;;
61435;SDS011;47304;47.456;19.160;2022-11-03T02:11:46;15.60;;;6.80;;
61435;SDS011;47304;47.456;19.160;2022-11-03T02:14:13;12.20;;;6.50;;
61435;SDS011;47304;47.456;19.160;2022-11-03T02:16:41;12.60;;;5.70;;
61435;SDS011;47304;47.456;19.160;2022-11-03T02:22:01;12.30;;;6.60;;
61435;SDS011;47304;47.456;19.160;2022-11-03T02:24:35;13.40;;;6.90;;
61435;SDS011;47304;47.456;19.160;2022-11-03T02:27:19;14.30;;;6.70;;
61435;SDS011;47304;47.456;19.160;2022-11-03T02:29:45;13.00;;;6.90;;
61435;SDS011;47304;47.456;19.160;2022-11-03T02:32:25;13.90;;;6.70;;
61435;SDS011;47304;47.456;19.160;2022-11-03T02:35:02;12.60;;;7.20;;
61435;SDS011;47304;47.456;19.160;2022-11-03T02:37:35;17.80;;;8.00;;
61435;SDS011;47304;47.456;19.160;2022-11-03T02:42:38;15.60;;;7.80;;
61435;SDS011;47304;47.456;19.160;2022-11-03T02:45:08;15.30;;;8.50;;
61435;SDS011;47304;47.456;19.160;2022-11-03T02:47:42;12.80;;;7.90;;
61435;SDS011;47304;47.456;19.160;2022-11-03T02:50:10;15.60;;;8.40;;
61435;SDS011;47304;47.456;19.160;2022-11-03T02:52:44;14.40;;;7.50;;
61435;SDS011;47304;47.456;19.160;2022-11-03T03:00:30;14.50;;;8.00;;
61435;SDS011;47304;47.456;19.160;2022-11-03T03:03:03;14.10;;;7.00;;
61435;SDS011;47304;47.456;19.160;2022-11-03T03:05:42;17.90;;;8.10;;
61435;SDS011;47304;47.456;19.160;2022-11-03T03:08:11;13.50;;;7.10;;
61435;SDS011;47304;47.456;19.160;2022-11-03T03:10:40;14.50;;;7.70;;
61435;SDS011;47304;47.456;19.160;2022-11-03T03:13:10;16.90;;;7.50;;
61435;SDS011;47304;47.456;19.160;2022-11-03T03:20:54;13.60;;;7.60;;
61435;SDS011;47304;47.456;19.160;2022-11-03T03:23:25;17.70;;;7.50;;
61435;SDS011;47304;47.456;19.160;2022-11-03T03:25:57;13.00;;;7.60;;
61435;SDS011;47304;47.456;19.160;2022-11-03T03:31:08;13.80;;;7.60;;
61435;SDS011;47304;47.456;19.160;2022-11-03T03:33:38;12.90;;;7.10;;
61435;SDS011;47304;47.456;19.160;2022-11-03T03:36:15;16.70;;;7.60;;
61435;SDS011;47304;47.456;19.160;2022-11-03T03:38:45;15.30;;;7.60;;
61435;SDS011;47304;47.456;19.160;2022-11-03T03:41:18;13.90;;;7.60;;
61435;SDS011;47304;47.456;19.160;2022-11-03T03:43:54;13.60;;;7.30;;
61435;SDS011;47304;47.456;19.160;2022-11-03T03:46:26;12.80;;;7.20;;
61435;SDS011;47304;47.456;19.160;2022-11-03T03:48:57;13.90;;;7.20;;
61435;SDS011;47304;47.456;19.160;2022-11-03T03:51:24;11.80;;;6.50;;
61435;SDS011;47304;47.456;19.160;2022-11-03T03:53:53;15.50;;;6.90;;
61435;SDS011;47304;47.456;19.160;2022-11-03T03:59:06;14.40;;;7.50;;
61435;SDS011;47304;47.456;19.160;2022-11-03T04:01:33;14.00;;;7.30;;
61435;SDS011;47304;47.456;19.160;2022-11-03T04:04:00;12.70;;;5.90;;
61435;SDS011;47304;47.456;19.160;2022-11-03T04:06:26;14.80;;;8.30;;
61435;SDS011;47304;47.456;19.160;2022-11-03T04:08:53;10.50;;;6.10;;
61435;SDS011;47304;47.456;19.160;2022-11-03T04:11:19;12.90;;;6.80;;
61435;SDS011;47304;47.456;19.160;2022-11-03T04:13:46;13.60;;;7.10;;
61435;SDS011;47304;47.456;19.160;2022-11-03T04:16:12;15.20;;;6.70;;
61435;SDS011;47304;47.456;19.160;2022-11-03T04:18:39;14.00;;;6.30;;
61435;SDS011;47304;47.456;19.160;2022-11-03T04:21:05;12.30;;;6.70;;
61435;SDS011;47304;47.456;19.160;2022-11-03T04:23:36;12.70;;;6.90;;
61435;SDS011;47304;47.456;19.160;2022-11-03T04:26:03;15.20;;;6.50;;
61435;SDS011;47304;47.456;19.160;2022-11-03T04:28:36;14.20;;;6.50;;
61435;SDS011;47304;47.456;19.160;2022-11-03T04:31:05;15.30;;;6.80;;
61435;SDS011;47304;47.456;19.160;2022-11-03T04:33:35;12.40;;;7.00;;
61435;SDS011;47304;47.456;19.160;2022-11-03T04:36:04;12.70;;;6.70;;
61435;SDS011;47304;47.456;19.160;2022-11-03T04:38:37;13.70;;;6.50;;
61435;SDS011;47304;47.456;19.160;2022-11-03T04:41:06;13.60;;;6.40;;
61435;SDS011;47304;47.456;19.160;2022-11-03T04:43:43;12.00;;;7.20;;
61435;SDS011;47304;47.456;19.160;2022-11-03T04:46:11;14.60;;;7.40;;
61435;SDS011;47304;47.456;19.160;2022-11-03T04:48:40;12.00;;;6.50;;
61435;SDS011;47304;47.456;19.160;2022-11-03T04:51:16;16.10;;;7.00;;
61435;SDS011;47304;47.456;19.160;2022-11-03T04:53:55;17.50;;;9.20;;
61435;SDS011;47304;47.456;19.160;2022-11-03T04:56:26;20.30;;;9.80;;
61435;SDS011;47304;47.456;19.160;2022-11-03T04:58:53;26.50;;;13.70;;
61435;SDS011;47304;47.456;19.160;2022-11-03T05:01:21;20.70;;;11.50;;
61435;SDS011;47304;47.456;19.160;2022-11-03T05:03:51;20.00;;;11.10;;
61435;SDS011;47304;47.456;19.160;2022-11-03T05:06:25;18.00;;;10.40;;
61435;SDS011;47304;47.456;19.160;2022-11-03T05:08:54;18.80;;;10.00;;
61435;SDS011;47304;47.456;19.160;2022-11-03T05:13:58;14.90;;;8.10;;
61435;SDS011;47304;47.456;19.160;2022-11-03T05:16:27;14.30;;;8.00;;
61435;SDS011;47304;47.456;19.160;2022-11-03T05:18:54;15.20;;;7.30;;
61435;SDS011;47304;47.456;19.160;2022-11-03T05:21:21;17.30;;;7.90;;
61435;SDS011;47304;47.456;19.160;2022-11-03T05:23:53;10.10;;;5.30;;
61435;SDS011;47304;47.456;19.160;2022-11-03T05:26:27;12.20;;;6.60;;
61435;SDS011;47304;47.456;19.160;2022-11-03T05:29:01;13.70;;;6.40;;
61435;SDS011;47304;47.456;19.160;2022-11-03T05:31:34;11.10;;;5.70;;
61435;SDS011;47304;47.456;19.160;2022-11-03T05:34:05;14.10;;;7.00;;
61435;SDS011;47304;47.456;19.160;2022-11-03T05:42:00;19.50;;;10.90;;
61435;SDS011;47304;47.456;19.160;2022-11-03T05:44:33;20.80;;;11.40;;
61435;SDS011;47304;47.456;19.160;2022-11-03T05:47:02;23.60;;;12.40;;
61435;SDS011;47304;47.456;19.160;2022-11-03T05:49:37;28.00;;;14.40;;
61435;SDS011;47304;47.456;19.160;2022-11-03T05:52:04;30.00;;;17.60;;
61435;SDS011;47304;47.456;19.160;2022-11-03T05:54:31;29.60;;;15.80;;
61435;SDS011;47304;47.456;19.160;2022-11-03T05:56:59;27.40;;;15.00;;
61435;SDS011;47304;47.456;19.160;2022-11-03T05:59:27;27.40;;;14.40;;
61435;SDS011;47304;47.456;19.160;2022-11-03T06:01:54;27.90;;;13.80;;
61435;SDS011;47304;47.456;19.160;2022-11-03T06:07:04;23.30;;;12.50;;
61435;SDS011;47304;47.456;19.160;2022-11-03T06:09:41;21.00;;;11.00;;
61435;SDS011;47304;47.456;19.160;2022-11-03T06:12:09;18.60;;;10.40;;
61435;SDS011;47304;47.456;19.160;2022-11-03T06:14:42;23.00;;;11.60;;
61435;SDS011;47304;47.456;19.160;2022-11-03T06:17:09;19.00;;;10.60;;
61435;SDS011;47304;47.456;19.160;2022-11-03T06:19:45;19.00;;;9.80;;
61435;SDS011;47304;47.456;19.160;2022-11-03T06:22:18;17.50;;;9.40;;
61435;SDS011;47304;47.456;19.160;2022-11-03T06:24:47;20.60;;;10.70;;
61435;SDS011;47304;47.456;19.160;2022-11-03T06:27:23;18.40;;;10.30;;
61435;SDS011;47304;47.456;19.160;2022-11-03T06:29:58;19.00;;;10.20;;
61435;SDS011;47304;47.456;19.160;2022-11-03T06:32:28;21.80;;;10.90;;
61435;SDS011;47304;47.456;19.160;2022-11-03T06:34:56;18.80;;;9.60;;
61435;SDS011;47304;47.456;19.160;2022-11-03T06:37:24;18.60;;;9.50;;
61435;SDS011;47304;47.456;19.160;2022-11-03T06:39:56;18.10;;;9.20;;
61435;SDS011;47304;47.456;19.160;2022-11-03T06:42:25;19.70;;;8.50;;
61435;SDS011;47304;47.456;19.160;2022-11-03T06:44:57;19.50;;;9.00;;
61435;SDS011;47304;47.456;19.160;2022-11-03T06:47:24;24.00;;;10.50;;
61435;SDS011;47304;47.456;19.160;2022-11-03T06:49:53;18.90;;;9.40;;
61435;SDS011;47304;47.456;19.160;2022-11-03T06:52:31;17.30;;;8.50;;
61435;SDS011;47304;47.456;19.160;2022-11-03T06:57:41;18.90;;;9.40;;
61435;SDS011;47304;47.456;19.160;2022-11-03T07:00:19;17.00;;;9.30;;
61435;SDS011;47304;47.456;19.160;2022-11-03T07:03:17;19.00;;;8.90;;
61435;SDS011;47304;47.456;19.160;2022-11-03T07:05:49;17.40;;;8.30;;
61435;SDS011;47304;47.456;19.160;2022-11-03T07:10:56;14.70;;;7.60;;
61435;SDS011;47304;47.456;19.160;2022-11-03T07:13:26;18.50;;;8.10;;
61435;SDS011;47304;47.456;19.160;2022-11-03T07:15:53;16.50;;;7.40;;
61435;SDS011;47304;47.456;19.160;2022-11-03T07:18:22;17.80;;;7.90;;
61435;SDS011;47304;47.456;19.160;2022-11-03T07:20:51;15.20;;;8.00;;
61435;SDS011;47304;47.456;19.160;2022-11-03T07:23:21;15.70;;;7.50;;
61435;SDS011;47304;47.456;19.160;2022-11-03T07:25:50;18.20;;;7.90;;
61435;SDS011;47304;47.456;19.160;2022-11-03T07:28:23;13.80;;;7.10;;
61435;SDS011;47304;47.456;19.160;2022-11-03T07:30:54;22.00;;;9.90;;
61435;SDS011;47304;47.456;19.160;2022-11-03T07:33:21;15.60;;;8.40;;
61435;SDS011;47304;47.456;19.160;2022-11-03T07:35:51;16.40;;;8.30;;
61435;SDS011;47304;47.456;19.160;2022-11-03T07:38:39;16.70;;;8.30;;
61435;SDS011;47304;47.456;19.160;2022-11-03T07:41:08;19.10;;;9.50;;
61435;SDS011;47304;47.456;19.160;2022-11-03T07:43:41;18.00;;;9.60;;
61435;SDS011;47304;47.456;19.160;2022-11-03T07:46:10;17.60;;;8.30;;
61435;SDS011;47304;47.456;19.160;2022-11-03T07:48:44;17.30;;;9.20;;
61435;SDS011;47304;47.456;19.160;2022-11-03T07:53:49;18.10;;;9.10;;
61435;SDS011;47304;47.456;19.160;2022-11-03T07:56:18;19.30;;;8.70;;
61435;SDS011;47304;47.456;19.160;2022-11-03T07:58:51;21.40;;;10.00;;
61435;SDS011;47304;47.456;19.160;2022-11-03T08:01:35;20.60;;;9.70;;
61435;SDS011;47304;47.456;19.160;2022-11-03T08:04:11;19.80;;;10.30;;
61435;SDS011;47304;47.456;19.160;2022-11-03T08:06:42;19.40;;;9.90;;
61435;SDS011;47304;47.456;19.160;2022-11-03T08:09:08;24.70;;;11.10;;
61435;SDS011;47304;47.456;19.160;2022-11-03T08:11:35;24.20;;;11.90;;
61435;SDS011;47304;47.456;19.160;2022-11-03T08:14:01;25.30;;;12.50;;
61435;SDS011;47304;47.456;19.160;2022-11-03T08:16:28;23.10;;;11.00;;
61435;SDS011;47304;47.456;19.160;2022-11-03T08:18:55;26.00;;;11.60;;
61435;SDS011;47304;47.456;19.160;2022-11-03T08:21:21;25.00;;;12.70;;
61435;SDS011;47304;47.456;19.160;2022-11-03T08:23:48;27.30;;;13.80;;
61435;SDS011;47304;47.456;19.160;2022-11-03T08:26:14;23.30;;;12.60;;
61435;SDS011;47304;47.456;19.160;2022-11-03T08:28:41;23.00;;;11.80;;
61435;SDS011;47304;47.456;19.160;2022-11-03T08:31:08;24.80;;;12.00;;
61435;SDS011;47304;47.456;19.160;2022-11-03T08:33:38;24.30;;;11.30;;
61435;SDS011;47304;47.456;19.160;2022-11-03T08:36:05;23.40;;;12.50;;
61435;SDS011;47304;47.456;19.160;2022-11-03T08:38:32;19.50;;;9.50;;
61435;SDS011;47304;47.456;19.160;2022-11-03T08:40:58;25.50;;;12.50;;
61435;SDS011;47304;47.456;19.160;2022-11-03T08:43:25;23.80;;;12.10;;
61435;SDS011;47304;47.456;19.160;2022-11-03T08:45:51;22.80;;;11.40;;
61435;SDS011;47304;47.456;19.160;2022-11-03T08:48:22;24.20;;;11.40;;
61435;SDS011;47304;47.456;19.160;2022-11-03T08:50:50;20.00;;;10.10;;
61435;SDS011;47304;47.456;19.160;2022-11-03T08:53:16;20.40;;;11.10;;
61435;SDS011;47304;47.456;19.160;2022-11-03T08:55:43;29.20;;;13.00;;
61435;SDS011;47304;47.456;19.160;2022-11-03T08:58:09;29.40;;;13.50;;
61435;SDS011;47304;47.456;19.160;2022-11-03T09:00:36;23.60;;;12.30;;
61435;SDS011;47304;47.456;19.160;2022-11-03T09:03:06;27.80;;;12.80;;
61435;SDS011;47304;47.456;19.160;2022-11-03T09:05:33;22.70;;;12.00;;
61435;SDS011;47304;47.456;19.160;2022-11-03T09:07:59;26.20;;;13.20;;
61435;SDS011;47304;47.456;19.160;2022-11-03T09:10:46;25.50;;;12.50;;
61435;SDS011;47304;47.456;19.160;2022-11-03T09:13:12;22.50;;;11.70;;
61435;SDS011;47304;47.456;19.160;2022-11-03T09:15:39;27.00;;;13.30;;
61435;SDS011;47304;47.456;19.160;2022-11-03T09:18:05;29.70;;;13.70;;
61435;SDS011;47304;47.456;19.160;2022-11-03T09:20:32;24.90;;;12.10;;
61435;SDS011;47304;47.456;19.160;2022-11-03T09:22:59;25.70;;;13.10;;
61435;SDS011;47304;47.456;19.160;2022-11-03T09:25:25;30.30;;;13.90;;
61435;SDS011;47304;47.456;19.160;2022-11-03T09:27:52;29.30;;;13.60;;
61435;SDS011;47304;47.456;19.160;2022-11-03T09:30:18;24.70;;;12.60;;
61435;SDS011;47304;47.456;19.160;2022-11-03T09:32:45;27.30;;;12.80;;
61435;SDS011;47304;47.456;19.160;2022-11-03T09:35:12;28.70;;;13.60;;
61435;SDS011;47304;47.456;19.160;2022-11-03T09:37:39;25.80;;;12.00;;
61435;SDS011;47304;47.456;19.160;2022-11-03T09:40:07;28.60;;;11.80;;
61435;SDS011;47304;47.456;19.160;2022-11-03T09:42:35;28.00;;;13.30;;
61435;SDS011;47304;47.456;19.160;2022-11-03T09:45:03;22.90;;;11.50;;
61435;SDS011;47304;47.456;19.160;2022-11-03T09:47:33;27.30;;;13.10;;
61435;SDS011;47304;47.456;19.160;2022-11-03T09:50:02;25.40;;;12.30;;
61435;SDS011;47304;47.456;19.160;2022-11-03T09:52:29;28.10;;;13.70;;
61435;SDS011;47304;47.456;19.160;2022-11-03T09:54:56;27.80;;;12.50;;
61435;SDS011;47304;47.456;19.160;2022-11-03T09:57:24;29.20;;;13.80;;
61435;SDS011;47304;47.456;19.160;2022-11-03T09:59:52;27.00;;;13.10;;
61435;SDS011;47304;47.456;19.160;2022-11-03T10:02:21;27.20;;;13.00;;
61435;SDS011;47304;47.456;19.160;2022-11-03T10:04:51;26.60;;;13.40;;
61435;SDS011;47304;47.456;19.160;2022-11-03T10:07:19;26.70;;;14.00;;
61435;SDS011;47304;47.456;19.160;2022-11-03T10:09:47;26.10;;;12.30;;
61435;SDS011;47304;47.456;19.160;2022-11-03T10:12:16;33.00;;;13.80;;
61435;SDS011;47304;47.456;19.160;2022-11-03T10:14:43;25.30;;;12.20;;
61435;SDS011;47304;47.456;19.160;2022-11-03T10:17:16;28.90;;;13.80;;
61435;SDS011;47304;47.456;19.160;2022-11-03T10:19:48;24.80;;;11.10;;
61435;SDS011;47304;47.456;19.160;2022-11-03T10:22:18;31.60;;;13.90;;
61435;SDS011;47304;47.456;19.160;2022-11-03T10:24:46;27.00;;;12.70;;
61435;SDS011;47304;47.456;19.160;2022-11-03T10:27:23;29.70;;;13.70;;
61435;SDS011;47304;47.456;19.160;2022-11-03T10:30:07;27.40;;;12.40;;
61435;SDS011;47304;47.456;19.160;2022-11-03T10:32:35;28.50;;;12.60;;
61435;SDS011;47304;47.456;19.160;2022-11-03T10:35:03;25.90;;;12.50;;
61435;SDS011;47304;47.456;19.160;2022-11-03T10:40:54;25.00;;;12.50;;
61435;SDS011;47304;47.456;19.160;2022-11-03T10:43:20;26.00;;;12.00;;
61435;SDS011;47304;47.456;19.160;2022-11-03T10:45:47;23.90;;;12.30;;
61435;SDS011;47304;47.456;19.160;2022-11-03T10:48:14;26.90;;;12.00;;
61435;SDS011;47304;47.456;19.160;2022-11-03T10:50:41;24.20;;;12.10;;
61435;SDS011;47304;47.456;19.160;2022-11-03T10:53:13;28.30;;;12.90;;
61435;SDS011;47304;47.456;19.160;2022-11-03T10:55:42;25.70;;;12.80;;
61435;SDS011;47304;47.456;19.160;2022-11-03T10:58:09;24.60;;;11.70;;
61435;SDS011;47304;47.456;19.160;2022-11-03T11:00:36;29.10;;;12.90;;
61435;SDS011;47304;47.456;19.160;2022-11-03T11:03:05;26.10;;;11.70;;
61435;SDS011;47304;47.456;19.160;2022-11-03T11:05:32;25.00;;;13.10;;
61435;SDS011;47304;47.456;19.160;2022-11-03T11:07:58;33.00;;;14.00;;
61435;SDS011;47304;47.456;19.160;2022-11-03T11:10:26;28.30;;;13.90;;
61435;SDS011;47304;47.456;19.160;2022-11-03T11:13:04;31.60;;;13.70;;
61435;SDS011;47304;47.456;19.160;2022-11-03T11:18:04;28.30;;;14.40;;
61435;SDS011;47304;47.456;19.160;2022-11-03T11:20:32;28.20;;;12.70;;
61435;SDS011;47304;47.456;19.160;2022-11-03T11:39:47;31.80;;;14.60;;
61435;SDS011;47304;47.456;19.160;2022-11-03T11:42:10;28.30;;;13.50;;
61435;SDS011;47304;47.456;19.160;2022-11-03T11:52:44;32.30;;;14.50;;
61435;SDS011;47304;47.456;19.160;2022-11-03T11:55:40;34.60;;;14.70;;
61435;SDS011;47304;47.456;19.160;2022-11-03T11:58:14;25.10;;;10.90;;
61435;SDS011;47304;47.456;19.160;2022-11-03T12:00:52;30.10;;;15.50;;
61435;SDS011;47304;47.456;19.160;2022-11-03T12:03:23;31.00;;;14.80;;
61435;SDS011;47304;47.456;19.160;2022-11-03T12:05:53;31.10;;;15.80;;
61435;SDS011;47304;47.456;19.160;2022-11-03T12:08:19;29.90;;;14.10;;
61435;SDS011;47304;47.456;19.160;2022-11-03T12:10:51;32.30;;;15.50;;
61435;SDS011;47304;47.456;19.160;2022-11-03T12:16:30;28.60;;;13.00;;
61435;SDS011;47304;47.456;19.160;2022-11-03T12:21:57;39.30;;;17.40;;
61435;SDS011;47304;47.456;19.160;2022-11-03T12:26:57;42.80;;;19.60;;
61435;SDS011;47304;47.456;19.160;2022-11-03T12:29:24;35.10;;;16.80;;
61435;SDS011;47304;47.456;19.160;2022-11-03T12:31:51;32.90;;;16.20;;
61435;SDS011;47304;47.456;19.160;2022-11-03T12:34:17;35.40;;;17.20;;
61435;SDS011;47304;47.456;19.160;2022-11-03T12:36:44;40.10;;;17.20;;
61435;SDS011;47304;47.456;19.160;2022-11-03T12:39:11;39.50;;;18.60;;
61435;SDS011;47304;47.456;19.160;2022-11-03T12:41:37;35.80;;;16.40;;
61435;SDS011;47304;47.456;19.160;2022-11-03T12:44:04;31.50;;;15.10;;
61435;SDS011;47304;47.456;19.160;2022-11-03T12:46:31;36.30;;;16.40;;
61435;SDS011;47304;47.456;19.160;2022-11-03T12:48:57;33.70;;;15.90;;
61435;SDS011;47304;47.456;19.160;2022-11-03T12:51:23;35.60;;;15.20;;
61435;SDS011;47304;47.456;19.160;2022-11-03T12:53:50;35.10;;;16.20;;
61435;SDS011;47304;47.456;19.160;2022-11-03T12:56:17;36.40;;;16.90;;
61435;SDS011;47304;47.456;19.160;2022-11-03T12:58:44;39.30;;;17.70;;
61435;SDS011;47304;47.456;19.160;2022-11-03T13:01:11;33.40;;;15.70;;
61435;SDS011;47304;47.456;19.160;2022-11-03T13:03:38;30.80;;;16.20;;
61435;SDS011;47304;47.456;19.160;2022-11-03T13:06:04;30.70;;;15.90;;
61435;SDS011;47304;47.456;19.160;2022-11-03T13:08:31;31.30;;;15.40;;
61435;SDS011;47304;47.456;19.160;2022-11-03T13:10:58;28.50;;;14.80;;
61435;SDS011;47304;47.456;19.160;2022-11-03T13:13:24;31.60;;;15.20;;
61435;SDS011;47304;47.456;19.160;2022-11-03T13:15:51;32.40;;;14.90;;
61435;SDS011;47304;47.456;19.160;2022-11-03T13:18:18;29.50;;;14.10;;
61435;SDS011;47304;47.456;19.160;2022-11-03T13:20:45;25.40;;;13.90;;
61435;SDS011;47304;47.456;19.160;2022-11-03T13:23:12;26.10;;;14.20;;
61435;SDS011;47304;47.456;19.160;2022-11-03T13:28:12;26.40;;;13.00;;
61435;SDS011;47304;47.456;19.160;2022-11-03T13:30:39;27.90;;;13.50;;
61435;SDS011;47304;47.456;19.160;2022-11-03T13:33:05;26.60;;;14.00;;
61435;SDS011;47304;47.456;19.160;2022-11-03T13:35:32;23.90;;;11.70;;
61435;SDS011;47304;47.456;19.160;2022-11-03T13:37:59;28.40;;;14.20;;
61435;SDS011;47304;47.456;19.160;2022-11-03T13:40:25;32.60;;;14.90;;
61435;SDS011;47304;47.456;19.160;2022-11-03T13:43:12;26.70;;;14.10;;
61435;SDS011;47304;47.456;19.160;2022-11-03T13:45:38;28.20;;;15.30;;
61435;SDS011;47304;47.456;19.160;2022-11-03T13:48:05;24.70;;;12.50;;
61435;SDS011;47304;47.456;19.160;2022-11-03T13:50:51;31.90;;;14.60;;
61435;SDS011;47304;47.456;19.160;2022-11-03T13:53:18;27.60;;;13.50;;
61435;SDS011;47304;47.456;19.160;2022-11-03T13:56:05;27.90;;;14.80;;
61435;SDS011;47304;47.456;19.160;2022-11-03T13:58:35;26.20;;;13.30;;
61435;SDS011;47304;47.456;19.160;2022-11-03T14:01:21;25.70;;;12.80;;
61435;SDS011;47304;47.456;19.160;2022-11-03T14:03:49;29.60;;;15.10;;
61435;SDS011;47304;47.456;19.160;2022-11-03T14:06:35;26.40;;;12.70;;
61435;SDS011;47304;47.456;19.160;2022-11-03T14:09:02;23.40;;;12.60;;
61435;SDS011;47304;47.456;19.160;2022-11-03T14:11:28;24.90;;;13.30;;
61435;SDS011;47304;47.456;19.160;2022-11-03T14:13:55;23.60;;;11.60;;
61435;SDS011;47304;47.456;19.160;2022-11-03T14:16:21;24.90;;;13.10;;
61435;SDS011;47304;47.456;19.160;2022-11-03T14:18:48;26.30;;;12.70;;
61435;SDS011;47304;47.456;19.160;2022-11-03T14:21:14;24.20;;;12.20;;
61435;SDS011;47304;47.456;19.160;2022-11-03T14:23:41;27.70;;;14.10;;
61435;SDS011;47304;47.456;19.160;2022-11-03T14:26:07;25.90;;;13.60;;
61435;SDS011;47304;47.456;19.160;2022-11-03T14:28:53;26.10;;;13.40;;
61435;SDS011;47304;47.456;19.160;2022-11-03T14:31:20;31.10;;;15.50;;
61435;SDS011;47304;47.456;19.160;2022-11-03T14:33:47;25.50;;;14.30;;
61435;SDS011;47304;47.456;19.160;2022-11-03T14:36:13;28.80;;;15.80;;
61435;SDS011;47304;47.456;19.160;2022-11-03T14:38:40;26.50;;;15.20;;
61435;SDS011;47304;47.456;19.160;2022-11-03T14:41:11;28.90;;;14.90;;
61435;SDS011;47304;47.456;19.160;2022-11-03T14:43:37;27.80;;;14.40;;
61435;SDS011;47304;47.456;19.160;2022-11-03T14:46:04;23.40;;;11.70;;
61435;SDS011;47304;47.456;19.160;2022-11-03T14:48:31;27.10;;;14.40;;
61435;SDS011;47304;47.456;19.160;2022-11-03T14:50:57;24.50;;;12.40;;
61435;SDS011;47304;47.456;19.160;2022-11-03T14:53:24;26.40;;;14.10;;
61435;SDS011;47304;47.456;19.160;2022-11-03T14:55:50;22.80;;;12.90;;
61435;SDS011;47304;47.456;19.160;2022-11-03T14:58:17;24.40;;;13.60;;
61435;SDS011;47304;47.456;19.160;2022-11-03T15:00:43;23.50;;;12.30;;
61435;SDS011;47304;47.456;19.160;2022-11-03T15:03:10;22.40;;;12.60;;
61435;SDS011;47304;47.456;19.160;2022-11-03T15:05:36;23.80;;;13.10;;
61435;SDS011;47304;47.456;19.160;2022-11-03T15:08:03;19.60;;;10.30;;
61435;SDS011;47304;47.456;19.160;2022-11-03T15:10:29;20.30;;;10.30;;
61435;SDS011;47304;47.456;19.160;2022-11-03T15:12:56;21.70;;;11.10;;
61435;SDS011;47304;47.456;19.160;2022-11-03T15:15:22;19.00;;;9.30;;
61435;SDS011;47304;47.456;19.160;2022-11-03T15:17:49;21.50;;;12.20;;
61435;SDS011;47304;47.456;19.160;2022-11-03T15:20:15;23.00;;;12.40;;
61435;SDS011;47304;47.456;19.160;2022-11-03T15:22:42;22.10;;;12.30;;
61435;SDS011;47304;47.456;19.160;2022-11-03T15:25:29;23.10;;;11.50;;
61435;SDS011;47304;47.456;19.160;2022-11-03T15:28:01;23.10;;;12.20;;
61435;SDS011;47304;47.456;19.160;2022-11-03T15:30:27;19.00;;;10.30;;
61435;SDS011;47304;47.456;19.160;2022-11-03T15:32:54;22.90;;;12.80;;
61435;SDS011;47304;47.456;19.160;2022-11-03T15:35:21;22.50;;;12.00;;
61435;SDS011;47304;47.456;19.160;2022-11-03T15:37:47;20.00;;;11.30;;
61435;SDS011;47304;47.456;19.160;2022-11-03T15:40:14;22.60;;;12.50;;
61435;SDS011;47304;47.456;19.160;2022-11-03T15:42:41;25.80;;;12.90;;
61435;SDS011;47304;47.456;19.160;2022-11-03T15:45:09;27.40;;;14.00;;
61435;SDS011;47304;47.456;19.160;2022-11-03T15:47:38;25.90;;;14.90;;
61435;SDS011;47304;47.456;19.160;2022-11-03T15:50:05;26.50;;;14.30;;
61435;SDS011;47304;47.456;19.160;2022-11-03T15:52:32;27.60;;;13.90;;
61435;SDS011;47304;47.456;19.160;2022-11-03T15:54:59;25.90;;;13.50;;